createdAt,value
2019-03-21T00:04:13.739Z,6.80
2019-03-21T00:09:19.244Z,6.70
2019-03-21T00:14:56.404Z,6.50
2019-03-21T00:20:00.624Z,6.80
2019-03-21T00:25:05.265Z,6.80
2019-03-21T00:30:13.613Z,6.60
2019-03-21T00:35:18.249Z,6.60
2019-03-21T00:40:36.378Z,6.60
2019-03-21T00:45:41.143Z,6.60
2019-03-21T00:50:45.379Z,6.60
2019-03-21T00:55:50.184Z,6.60
2019-03-21T01:00:55.339Z,6.50
2019-03-21T01:06:00.193Z,6.40
2019-03-21T01:11:04.737Z,6.40
2019-03-21T01:16:08.977Z,6.50
2019-03-21T01:21:13.233Z,6.40
2019-03-21T01:26:18.383Z,6.40
2019-03-21T01:31:22.602Z,6.70
2019-03-21T01:36:26.861Z,6.80
2019-03-21T01:41:31.067Z,6.80
2019-03-21T01:46:35.245Z,6.70
2019-03-21T01:51:39.465Z,6.70
2019-03-21T01:56:43.662Z,6.90
2019-03-21T02:01:48.113Z,6.90
2019-03-21T02:06:52.341Z,6.90
2019-03-21T02:11:56.551Z,7.10
2019-03-21T02:17:00.749Z,7.20
2019-03-21T02:22:05.241Z,7.10
2019-03-21T02:27:09.469Z,7.00
2019-03-21T02:32:13.934Z,6.90
2019-03-21T02:37:18.146Z,6.70
2019-03-21T02:42:22.342Z,6.70
2019-03-21T02:47:26.562Z,6.90
2019-03-21T02:52:31.078Z,6.90
2019-03-21T02:57:35.302Z,7.00
2019-03-21T03:02:39.499Z,6.90
2019-03-21T03:07:43.987Z,7.00
2019-03-21T03:12:48.722Z,7.10
2019-03-21T03:17:52.940Z,7.00
2019-03-21T03:22:57.206Z,6.90
2019-03-21T03:28:14.042Z,6.80
2019-03-21T03:33:18.237Z,6.80
2019-03-21T03:38:22.438Z,6.80
2019-03-21T03:43:26.709Z,6.70
2019-03-21T03:48:30.914Z,6.70
2019-03-21T03:53:35.110Z,6.50
2019-03-21T03:58:40.718Z,6.50
2019-03-21T04:03:45.213Z,6.20
2019-03-21T04:08:49.510Z,6.00
2019-03-21T04:13:53.742Z,5.80
2019-03-21T04:18:58.230Z,5.80
2019-03-21T04:24:02.429Z,5.50
2019-03-21T04:29:06.901Z,5.40
2019-03-21T04:34:11.208Z,5.40
2019-03-21T04:39:15.477Z,5.30
2019-03-21T04:44:20.516Z,5.50
2019-03-21T04:49:24.986Z,5.40
2019-03-21T04:54:29.213Z,5.40
2019-03-21T04:59:33.423Z,5.30
2019-03-21T05:04:37.611Z,5.40
2019-03-21T05:09:41.801Z,5.40
2019-03-21T05:14:46.037Z,5.40
2019-03-21T05:19:50.515Z,5.50
2019-03-21T05:24:54.710Z,5.40
2019-03-21T05:29:58.921Z,5.30
2019-03-21T05:35:03.489Z,5.50
2019-03-21T05:40:15.821Z,5.60
2019-03-21T05:45:20.142Z,5.90
2019-03-21T05:50:24.363Z,6.10
2019-03-21T05:55:28.560Z,6.20
2019-03-21T06:00:36.995Z,6.20
2019-03-21T06:05:42.526Z,6.20
2019-03-21T06:10:47.964Z,6.10
2019-03-21T06:15:52.160Z,6.00
2019-03-21T06:21:16.500Z,6.10
2019-03-21T06:26:36.908Z,6.40
2019-03-21T06:31:41.109Z,6.50
2019-03-21T06:36:45.362Z,6.60
2019-03-21T06:41:49.583Z,6.70
2019-03-21T06:46:53.803Z,7.00
2019-03-21T06:51:58.326Z,7.30
2019-03-21T06:57:02.832Z,7.30
2019-03-21T07:02:07.154Z,7.40
2019-03-21T07:07:11.344Z,7.60
2019-03-21T07:12:15.546Z,7.70
2019-03-21T07:17:20.033Z,7.90
2019-03-21T07:22:24.307Z,8.00
2019-03-21T07:27:28.581Z,8.30
2019-03-21T07:32:33.768Z,8.70
2019-03-21T07:37:39.043Z,8.90
2019-03-21T07:42:43.583Z,9.00
2019-03-21T07:47:47.790Z,9.10
2019-03-21T07:52:52.054Z,9.30
2019-03-21T07:57:56.290Z,9.60
2019-03-21T08:03:00.595Z,10.00
2019-03-21T08:08:04.836Z,10.10
2019-03-21T08:13:09.117Z,12.10
2019-03-21T08:18:13.342Z,16.40
2019-03-21T08:23:17.593Z,20.30
2019-03-21T08:28:21.805Z,21.90
2019-03-21T08:33:26.166Z,23.80
2019-03-21T08:38:30.427Z,25.30
2019-03-21T08:43:34.811Z,26.30
2019-03-21T08:48:39.154Z,27.40
2019-03-21T08:53:43.425Z,29.00
2019-03-21T08:58:54.275Z,30.30
2019-03-21T09:03:58.497Z,29.80
2019-03-21T09:09:03.818Z,31.00
2019-03-21T09:14:08.333Z,33.10
2019-03-21T09:19:12.853Z,32.80
2019-03-21T09:24:17.157Z,33.20
2019-03-21T09:29:21.774Z,34.30
2019-03-21T09:34:26.071Z,35.10
2019-03-21T09:39:30.346Z,35.10
2019-03-21T09:44:37.570Z,36.90
2019-03-21T09:49:41.842Z,35.20
2019-03-21T09:54:46.102Z,33.80
2019-03-21T09:59:50.358Z,33.60
2019-03-21T10:04:54.617Z,34.10
2019-03-21T10:09:58.930Z,35.20
2019-03-21T10:15:03.351Z,36.30
2019-03-21T10:20:07.981Z,36.70
2019-03-21T10:25:12.739Z,34.50
2019-03-21T10:30:31.141Z,36.00
2019-03-21T10:35:35.834Z,36.30
2019-03-21T10:40:40.498Z,36.90
2019-03-21T10:45:44.819Z,36.70
2019-03-21T10:50:49.254Z,34.50
2019-03-21T10:55:53.641Z,36.50
2019-03-21T11:00:58.142Z,39.10
2019-03-21T11:06:02.772Z,37.80
2019-03-21T11:11:07.416Z,36.30
2019-03-21T11:16:11.755Z,36.60
2019-03-21T11:21:19.828Z,36.10
2019-03-21T11:26:24.217Z,35.40
2019-03-21T11:31:28.565Z,34.30
2019-03-21T11:36:38.179Z,35.60
2019-03-21T11:41:39.273Z,35.50
2019-03-21T11:46:43.813Z,35.50
2019-03-21T11:51:48.268Z,34.70
2019-03-21T11:56:52.554Z,32.90
2019-03-21T12:01:57.192Z,32.30
2019-03-21T12:07:01.609Z,34.10
2019-03-21T12:12:05.888Z,34.10
2019-03-21T12:17:12.714Z,34.50
2019-03-21T12:22:16.390Z,33.70
2019-03-21T12:27:20.743Z,32.80
2019-03-21T12:32:28.005Z,32.40
2019-03-21T12:37:32.557Z,34.30
2019-03-21T12:42:36.811Z,32.80
2019-03-21T12:47:41.351Z,32.00
2019-03-21T12:52:45.694Z,33.10
2019-03-21T12:57:50.018Z,33.90
2019-03-21T13:02:54.329Z,34.40
2019-03-21T13:07:58.774Z,34.90
2019-03-21T13:13:03.130Z,34.90
2019-03-21T13:18:08.238Z,33.70
2019-03-21T13:23:12.478Z,33.70
2019-03-21T13:28:16.690Z,33.60
2019-03-21T13:33:21.185Z,33.50
2019-03-21T13:38:25.428Z,32.70
2019-03-21T13:43:29.643Z,32.60
2019-03-21T13:48:34.182Z,33.00
2019-03-21T13:53:38.846Z,32.10
2019-03-21T13:58:43.328Z,31.50
2019-03-21T14:03:47.614Z,32.40
2019-03-21T14:08:52.670Z,32.20
2019-03-21T14:13:56.901Z,31.60
2019-03-21T14:19:01.110Z,31.60
2019-03-21T14:24:05.410Z,31.00
2019-03-21T14:29:12.919Z,30.00
2019-03-21T14:34:15.890Z,29.30
2019-03-21T14:39:20.137Z,30.40
2019-03-21T14:44:24.477Z,30.90
2019-03-21T14:49:29.025Z,30.70
2019-03-21T14:54:33.265Z,29.90
2019-03-21T14:59:37.706Z,30.40
2019-03-21T15:04:42.000Z,30.20
2019-03-21T15:09:46.260Z,29.90
2019-03-21T15:14:50.449Z,29.40
2019-03-21T15:19:54.746Z,28.80
2019-03-21T15:24:59.086Z,29.10
2019-03-21T15:30:03.654Z,28.60
2019-03-21T15:35:10.240Z,27.10
2019-03-21T15:40:14.912Z,26.90
2019-03-21T15:45:23.879Z,27.10
2019-03-21T15:50:30.163Z,26.50
2019-03-21T15:55:34.817Z,26.30
2019-03-21T16:00:40.422Z,25.90
2019-03-21T16:05:45.623Z,24.70
2019-03-21T16:10:50.168Z,24.50
2019-03-21T16:15:54.942Z,24.20
2019-03-21T16:20:59.472Z,24.10
2019-03-21T16:26:04.026Z,23.20
2019-03-21T16:31:08.306Z,22.30
2019-03-21T16:36:12.806Z,21.70
2019-03-21T16:41:17.016Z,21.10
2019-03-21T16:46:21.048Z,20.70
2019-03-21T16:51:25.278Z,20.10
2019-03-21T16:56:29.714Z,19.50
2019-03-21T17:01:34.344Z,19.10
2019-03-21T17:06:39.078Z,18.70
2019-03-21T17:11:43.321Z,18.30
2019-03-21T17:16:47.549Z,17.80
2019-03-21T17:21:51.801Z,17.60
2019-03-21T17:26:56.159Z,17.20
2019-03-21T17:32:00.368Z,16.90
2019-03-21T17:37:04.683Z,16.70
2019-03-21T17:42:08.901Z,16.40
2019-03-21T17:47:13.187Z,16.10
2019-03-21T17:52:17.863Z,15.70
2019-03-21T17:57:33.739Z,15.60
2019-03-21T18:02:28.526Z,15.50
2019-03-21T18:07:33.043Z,15.40
2019-03-21T18:12:37.272Z,15.30
2019-03-21T18:17:41.491Z,15.00
2019-03-21T18:22:45.898Z,14.70
2019-03-21T18:27:50.902Z,14.80
2019-03-21T18:32:55.215Z,14.60
2019-03-21T18:37:59.506Z,14.50
2019-03-21T18:43:04.965Z,14.30
2019-03-21T18:48:09.206Z,14.20
2019-03-21T18:53:13.717Z,14.10
2019-03-21T18:58:20.288Z,13.90
2019-03-21T19:03:26.176Z,13.80
2019-03-21T19:08:30.425Z,13.60
2019-03-21T19:13:34.977Z,13.60
2019-03-21T19:18:39.302Z,13.50
2019-03-21T19:23:43.751Z,13.60
2019-03-21T19:28:47.993Z,13.40
2019-03-21T19:33:52.244Z,13.00
2019-03-21T19:38:56.518Z,13.00
2019-03-21T19:44:01.109Z,13.00
2019-03-21T19:49:13.326Z,12.80
2019-03-21T19:54:17.631Z,12.40
2019-03-21T19:59:21.874Z,12.30
2019-03-21T20:04:26.425Z,12.50
2019-03-21T20:09:31.079Z,12.60
2019-03-21T20:14:35.326Z,12.50
2019-03-21T20:19:42.854Z,12.40
2019-03-21T20:24:47.231Z,12.20
2019-03-21T20:29:51.435Z,11.80
2019-03-21T20:34:55.789Z,11.70
2019-03-21T20:40:00.332Z,11.90
2019-03-21T20:45:09.110Z,11.80
2019-03-21T20:50:13.945Z,11.50
2019-03-21T20:55:18.333Z,11.30
2019-03-21T21:00:23.256Z,11.50
2019-03-21T21:05:27.573Z,11.30
2019-03-21T21:10:38.849Z,11.10
2019-03-21T21:15:45.146Z,11.00
2019-03-21T21:20:49.475Z,10.90
2019-03-21T21:26:05.684Z,10.70
2019-03-21T21:31:08.657Z,10.70
2019-03-21T21:36:21.640Z,10.50
2019-03-21T21:41:19.163Z,10.30
2019-03-21T21:46:23.433Z,10.30
2019-03-21T21:51:27.931Z,10.20
2019-03-21T21:56:32.487Z,10.20
2019-03-21T22:01:36.701Z,10.10
2019-03-21T22:06:41.195Z,10.10
2019-03-21T22:11:45.420Z,10.10
2019-03-21T22:16:49.678Z,9.80
2019-03-21T22:21:53.929Z,9.70
2019-03-21T22:26:58.191Z,9.50
2019-03-21T22:32:02.409Z,9.50
2019-03-21T22:37:06.741Z,9.40
2019-03-21T22:42:11.632Z,9.10
2019-03-21T22:47:16.159Z,9.00
2019-03-21T22:52:20.381Z,9.10
2019-03-21T22:57:24.609Z,9.20
2019-03-21T23:02:28.918Z,9.30
2019-03-21T23:07:33.190Z,9.10
2019-03-21T23:12:37.422Z,9.00
2019-03-21T23:17:41.655Z,9.00
2019-03-21T23:22:45.973Z,8.80
2019-03-21T23:27:50.553Z,8.70
2019-03-21T23:32:54.767Z,8.60
2019-03-21T23:37:59.001Z,8.60
2019-03-21T23:43:03.651Z,8.60
2019-03-21T23:48:08.125Z,8.40
2019-03-21T23:53:12.668Z,8.10
2019-03-21T23:58:17.209Z,8.20
